sensor_id;sensor_type;location;lat;lon;timestamp;pressure;altitude;pressure_sealevel;temperature;humidity
39613;BME280;25303;48.896;13.342;2023-09-18T00:00:37;92726.91;;;20.51;46.31
39613;BME280;25303;48.896;13.342;2023-09-18T00:03:21;92732.13;;;20.51;46.17
39613;BME280;25303;48.896;13.342;2023-09-18T00:06:06;92731.31;;;20.50;46.21
39613;BME280;25303;48.896;13.342;2023-09-18T00:08:50;92726.31;;;20.48;45.98
39613;BME280;25303;48.896;13.342;2023-09-18T00:11:36;92723.72;;;20.48;45.84
39613;BME280;25303;48.896;13.342;2023-09-18T00:14:20;92726.53;;;20.47;45.80
39613;BME280;25303;48.896;13.342;2023-09-18T00:17:03;92732.56;;;20.47;45.80
39613;BME280;25303;48.896;13.342;2023-09-18T00:19:46;92720.50;;;20.46;45.97
39613;BME280;25303;48.896;13.342;2023-09-18T00:22:29;92723.72;;;20.48;45.82
39613;BME280;25303;48.896;13.342;2023-09-18T00:25:12;92710.41;;;20.50;45.44
39613;BME280;25303;48.896;13.342;2023-09-18T00:27:58;92713.81;;;20.51;45.43
39613;BME280;25303;48.896;13.342;2023-09-18T00:30:46;92707.00;;;20.49;45.72
39613;BME280;25303;48.896;13.342;2023-09-18T00:33:30;92704.97;;;20.52;45.30
39613;BME280;25303;48.896;13.342;2023-09-18T00:36:12;92697.13;;;20.52;45.03
39613;BME280;25303;48.896;13.342;2023-09-18T00:38:55;92702.34;;;20.52;44.98
39613;BME280;25303;48.896;13.342;2023-09-18T00:41:38;92696.53;;;20.49;44.98
39613;BME280;25303;48.896;13.342;2023-09-18T00:44:24;92687.88;;;20.49;45.13
39613;BME280;25303;48.896;13.342;2023-09-18T00:47:08;92690.50;;;20.49;44.82
39613;BME280;25303;48.896;13.342;2023-09-18T00:49:52;92694.72;;;20.50;45.09
39613;BME280;25303;48.896;13.342;2023-09-18T00:52:38;92690.06;;;20.52;44.68
39613;BME280;25303;48.896;13.342;2023-09-18T00:55:21;92678.81;;;20.52;44.61
39613;BME280;25303;48.896;13.342;2023-09-18T00:58:04;92683.00;;;20.53;44.15
39613;BME280;25303;48.896;13.342;2023-09-18T01:00:49;92680.38;;;20.53;44.05
39613;BME280;25303;48.896;13.342;2023-09-18T01:03:33;92683.59;;;20.55;44.00
39613;BME280;25303;48.896;13.342;2023-09-18T01:06:16;92686.66;;;20.52;44.21
39613;BME280;25303;48.896;13.342;2023-09-18T01:08:59;92677.78;;;20.53;44.04
39613;BME280;25303;48.896;13.342;2023-09-18T01:11:48;92679.94;;;20.56;43.78
39613;BME280;25303;48.896;13.342;2023-09-18T01:14:37;92674.50;;;20.57;44.13
39613;BME280;25303;48.896;13.342;2023-09-18T01:17:22;92672.25;;;20.61;43.79
39613;BME280;25303;48.896;13.342;2023-09-18T01:20:08;92673.84;;;20.62;43.52
39613;BME280;25303;48.896;13.342;2023-09-18T01:22:53;92666.78;;;20.62;43.74
39613;BME280;25303;48.896;13.342;2023-09-18T01:25:36;92661.56;;;20.62;43.43
39613;BME280;25303;48.896;13.342;2023-09-18T01:28:18;92660.09;;;20.67;43.40
39613;BME280;25303;48.896;13.342;2023-09-18T01:31:01;92648.84;;;20.66;43.32
39613;BME280;25303;48.896;13.342;2023-09-18T01:33:45;92645.22;;;20.67;43.76
39613;BME280;25303;48.896;13.342;2023-09-18T01:36:30;92647.34;;;20.70;43.63
39613;BME280;25303;48.896;13.342;2023-09-18T01:39:15;92641.09;;;20.71;43.45
39613;BME280;25303;48.896;13.342;2023-09-18T01:41:59;92641.47;;;20.75;43.56
39613;BME280;25303;48.896;13.342;2023-09-18T01:44:43;92639.44;;;20.77;43.35
39613;BME280;25303;48.896;13.342;2023-09-18T01:47:27;92638.22;;;20.79;43.46
39613;BME280;25303;48.896;13.342;2023-09-18T01:50:10;92633.75;;;20.80;43.60
39613;BME280;25303;48.896;13.342;2023-09-18T01:52:54;92632.75;;;20.81;43.46
39613;BME280;25303;48.896;13.342;2023-09-18T01:55:38;92626.28;;;20.84;43.69
39613;BME280;25303;48.896;13.342;2023-09-18T01:58:21;92624.69;;;20.83;43.50
39613;BME280;25303;48.896;13.342;2023-09-18T02:01:04;92631.50;;;20.84;43.37
39613;BME280;25303;48.896;13.342;2023-09-18T02:03:47;92629.91;;;20.83;43.73
39613;BME280;25303;48.896;13.342;2023-09-18T02:06:50;92620.22;;;20.83;43.23
39613;BME280;25303;48.896;13.342;2023-09-18T02:09:34;92628.09;;;20.83;43.44
39613;BME280;25303;48.896;13.342;2023-09-18T02:12:18;92619.44;;;20.83;43.76
39613;BME280;25303;48.896;13.342;2023-09-18T02:15:03;92619.91;;;20.79;43.88
39613;BME280;25303;48.896;13.342;2023-09-18T02:17:48;92614.78;;;20.85;43.29
39613;BME280;25303;48.896;13.342;2023-09-18T02:20:31;92610.78;;;20.82;43.69
39613;BME280;25303;48.896;13.342;2023-09-18T02:23:20;92609.44;;;20.79;43.81
39613;BME280;25303;48.896;13.342;2023-09-18T02:26:04;92603.75;;;20.83;43.44
39613;BME280;25303;48.896;13.342;2023-09-18T02:28:48;92609.78;;;20.83;43.60
39613;BME280;25303;48.896;13.342;2023-09-18T02:31:31;92600.56;;;20.81;43.30
39613;BME280;25303;48.896;13.342;2023-09-18T02:34:14;92595.78;;;20.77;43.44
39613;BME280;25303;48.896;13.342;2023-09-18T02:36:57;92595.34;;;20.81;43.45
39613;BME280;25303;48.896;13.342;2023-09-18T02:39:40;92599.31;;;20.83;43.69
39613;BME280;25303;48.896;13.342;2023-09-18T02:42:23;92599.88;;;20.85;43.44
39613;BME280;25303;48.896;13.342;2023-09-18T02:45:08;92593.63;;;20.86;43.73
39613;BME280;25303;48.896;13.342;2023-09-18T02:47:52;92588.16;;;20.88;43.66
39613;BME280;25303;48.896;13.342;2023-09-18T02:50:35;92584.75;;;20.87;43.67
39613;BME280;25303;48.896;13.342;2023-09-18T02:53:20;92581.31;;;20.87;43.72
39613;BME280;25303;48.896;13.342;2023-09-18T02:56:04;92586.03;;;20.85;43.53
39613;BME280;25303;48.896;13.342;2023-09-18T02:58:47;92577.69;;;20.76;43.63
39613;BME280;25303;48.896;13.342;2023-09-18T03:01:31;92582.31;;;20.74;43.62
39613;BME280;25303;48.896;13.342;2023-09-18T03:04:14;92582.19;;;20.69;44.02
39613;BME280;25303;48.896;13.342;2023-09-18T03:06:57;92578.31;;;20.71;43.83
39613;BME280;25303;48.896;13.342;2023-09-18T03:09:40;92581.53;;;20.73;44.05
39613;BME280;25303;48.896;13.342;2023-09-18T03:12:23;92582.78;;;20.71;43.94
39613;BME280;25303;48.896;13.342;2023-09-18T03:15:06;92572.88;;;20.73;43.78
39613;BME280;25303;48.896;13.342;2023-09-18T03:17:52;92574.78;;;20.65;44.32
39613;BME280;25303;48.896;13.342;2023-09-18T03:20:35;92582.78;;;20.71;44.06
39613;BME280;25303;48.896;13.342;2023-09-18T03:23:18;92576.72;;;20.70;43.86
39613;BME280;25303;48.896;13.342;2023-09-18T03:26:02;92568.88;;;20.70;43.85
39613;BME280;25303;48.896;13.342;2023-09-18T03:28:45;92574.34;;;20.69;44.10
39613;BME280;25303;48.896;13.342;2023-09-18T03:31:29;92572.31;;;20.71;44.05
39613;BME280;25303;48.896;13.342;2023-09-18T03:34:13;92573.66;;;20.73;44.35
39613;BME280;25303;48.896;13.342;2023-09-18T03:36:56;92564.03;;;20.74;44.30
39613;BME280;25303;48.896;13.342;2023-09-18T03:39:39;92563.81;;;20.75;44.25
39613;BME280;25303;48.896;13.342;2023-09-18T03:42:23;92567.00;;;20.77;44.35
39613;BME280;25303;48.896;13.342;2023-09-18T03:45:07;92560.06;;;20.83;44.15
39613;BME280;25303;48.896;13.342;2023-09-18T03:47:51;92551.31;;;20.89;43.82
39613;BME280;25303;48.896;13.342;2023-09-18T03:50:37;92543.56;;;20.94;43.80
39613;BME280;25303;48.896;13.342;2023-09-18T03:53:22;92551.19;;;20.96;43.66
39613;BME280;25303;48.896;13.342;2023-09-18T03:56:06;92550.75;;;20.99;43.78
39613;BME280;25303;48.896;13.342;2023-09-18T03:58:49;92542.31;;;20.97;44.04
39613;BME280;25303;48.896;13.342;2023-09-18T04:01:33;92534.25;;;20.99;44.15
39613;BME280;25303;48.896;13.342;2023-09-18T04:04:16;92533.78;;;21.02;43.97
39613;BME280;25303;48.896;13.342;2023-09-18T04:07:05;92527.53;;;21.03;43.84
39613;BME280;25303;48.896;13.342;2023-09-18T04:09:48;92522.41;;;20.96;43.75
39613;BME280;25303;48.896;13.342;2023-09-18T04:12:32;92513.44;;;20.92;43.94
39613;BME280;25303;48.896;13.342;2023-09-18T04:15:15;92514.69;;;20.89;44.22
39613;BME280;25303;48.896;13.342;2023-09-18T04:18:00;92511.25;;;20.89;44.18
39613;BME280;25303;48.896;13.342;2023-09-18T04:20:43;92512.06;;;20.89;44.17
39613;BME280;25303;48.896;13.342;2023-09-18T04:23:27;92507.88;;;20.88;44.23
39613;BME280;25303;48.896;13.342;2023-09-18T04:26:10;92506.59;;;20.91;44.27
39613;BME280;25303;48.896;13.342;2023-09-18T04:28:57;92506.28;;;20.99;44.31
39613;BME280;25303;48.896;13.342;2023-09-18T04:31:40;92501.03;;;20.99;44.40
39613;BME280;25303;48.896;13.342;2023-09-18T04:34:23;92496.00;;;20.98;44.16
39613;BME280;25303;48.896;13.342;2023-09-18T04:37:06;92493.41;;;20.98;44.12
39613;BME280;25303;48.896;13.342;2023-09-18T04:39:50;92493.41;;;20.98;44.06
39613;BME280;25303;48.896;13.342;2023-09-18T04:42:33;92485.53;;;20.98;44.24
39613;BME280;25303;48.896;13.342;2023-09-18T04:45:16;92482.34;;;20.95;44.27
39613;BME280;25303;48.896;13.342;2023-09-18T04:48:00;92477.13;;;20.95;44.52
39613;BME280;25303;48.896;13.342;2023-09-18T04:50:45;92477.38;;;20.94;44.44
39613;BME280;25303;48.896;13.342;2023-09-18T04:53:28;92466.56;;;20.90;44.60
39613;BME280;25303;48.896;13.342;2023-09-18T04:56:12;92452.22;;;20.93;44.72
39613;BME280;25303;48.896;13.342;2023-09-18T04:58:56;92457.69;;;20.91;44.35
39613;BME280;25303;48.896;13.342;2023-09-18T05:01:39;92469.28;;;20.95;44.49
39613;BME280;25303;48.896;13.342;2023-09-18T05:04:23;92474.28;;;20.97;44.44
39613;BME280;25303;48.896;13.342;2023-09-18T05:07:06;92472.69;;;20.96;44.49
39613;BME280;25303;48.896;13.342;2023-09-18T05:09:49;92467.22;;;20.98;44.86
39613;BME280;25303;48.896;13.342;2023-09-18T05:12:33;92462.34;;;21.01;44.59
39613;BME280;25303;48.896;13.342;2023-09-18T05:15:16;92465.75;;;21.02;44.80
39613;BME280;25303;48.896;13.342;2023-09-18T05:18:00;92461.88;;;21.04;44.60
39613;BME280;25303;48.896;13.342;2023-09-18T05:20:43;92467.47;;;21.08;45.01
39613;BME280;25303;48.896;13.342;2023-09-18T05:23:26;92465.63;;;21.08;45.02
39613;BME280;25303;48.896;13.342;2023-09-18T05:26:09;92457.53;;;21.10;44.73
39613;BME280;25303;48.896;13.342;2023-09-18T05:28:54;92461.75;;;21.11;44.94
39613;BME280;25303;48.896;13.342;2023-09-18T05:31:36;92470.97;;;21.14;44.66
39613;BME280;25303;48.896;13.342;2023-09-18T05:34:19;92476.78;;;21.16;44.84
39613;BME280;25303;48.896;13.342;2023-09-18T05:37:03;92473.91;;;21.17;44.75
39613;BME280;25303;48.896;13.342;2023-09-18T05:39:46;92482.34;;;21.19;45.11
39613;BME280;25303;48.896;13.342;2023-09-18T05:42:28;92482.91;;;21.21;45.00
39613;BME280;25303;48.896;13.342;2023-09-18T05:45:14;92487.69;;;21.24;45.22
39613;BME280;25303;48.896;13.342;2023-09-18T05:47:57;92486.41;;;21.27;45.26
39613;BME280;25303;48.896;13.342;2023-09-18T05:50:45;92479.91;;;21.30;45.03
39613;BME280;25303;48.896;13.342;2023-09-18T05:53:29;92475.81;;;21.34;45.00
39613;BME280;25303;48.896;13.342;2023-09-18T05:56:12;92474.91;;;21.40;45.27
39613;BME280;25303;48.896;13.342;2023-09-18T05:58:56;92465.53;;;21.44;45.33
39613;BME280;25303;48.896;13.342;2023-09-18T06:01:40;92454.38;;;21.49;45.35
39613;BME280;25303;48.896;13.342;2023-09-18T06:04:23;92443.41;;;21.52;45.03
39613;BME280;25303;48.896;13.342;2023-09-18T06:07:06;92443.50;;;21.57;45.12
39613;BME280;25303;48.896;13.342;2023-09-18T06:09:49;92439.19;;;21.63;45.10
39613;BME280;25303;48.896;13.342;2023-09-18T06:12:32;92441.13;;;21.67;45.23
39613;BME280;25303;48.896;13.342;2023-09-18T06:15:15;92433.59;;;21.71;45.19
39613;BME280;25303;48.896;13.342;2023-09-18T06:17:59;92438.66;;;21.78;44.87
39613;BME280;25303;48.896;13.342;2023-09-18T06:20:42;92431.94;;;21.82;45.17
39613;BME280;25303;48.896;13.342;2023-09-18T06:23:26;92431.44;;;21.85;45.06
39613;BME280;25303;48.896;13.342;2023-09-18T06:26:10;92437.34;;;21.92;44.99
39613;BME280;25303;48.896;13.342;2023-09-18T06:28:52;92438.22;;;21.98;45.19
39613;BME280;25303;48.896;13.342;2023-09-18T06:31:38;92437.75;;;22.01;44.67
39613;BME280;25303;48.896;13.342;2023-09-18T06:34:22;92427.34;;;22.06;45.02
39613;BME280;25303;48.896;13.342;2023-09-18T06:37:06;92413.28;;;22.12;44.84
39613;BME280;25303;48.896;13.342;2023-09-18T06:39:49;92413.38;;;22.18;45.01
39613;BME280;25303;48.896;13.342;2023-09-18T06:42:32;92413.47;;;22.23;45.22
39613;BME280;25303;48.896;13.342;2023-09-18T06:45:15;92421.38;;;22.28;45.24
39613;BME280;25303;48.896;13.342;2023-09-18T06:47:58;92424.91;;;22.34;45.28
39613;BME280;25303;48.896;13.342;2023-09-18T06:50:43;92427.84;;;22.37;45.33
39613;BME280;25303;48.896;13.342;2023-09-18T06:53:26;92419.25;;;22.42;45.10
39613;BME280;25303;48.896;13.342;2023-09-18T06:56:09;92414.88;;;22.48;45.39
39613;BME280;25303;48.896;13.342;2023-09-18T06:58:54;92419.19;;;22.54;45.74
39613;BME280;25303;48.896;13.342;2023-09-18T07:01:37;92416.13;;;22.62;45.42
39613;BME280;25303;48.896;13.342;2023-09-18T07:04:20;92420.69;;;22.67;45.42
39613;BME280;25303;48.896;13.342;2023-09-18T07:07:05;92414.44;;;22.73;45.43
39613;BME280;25303;48.896;13.342;2023-09-18T07:09:48;92411.41;;;22.81;45.23
39613;BME280;25303;48.896;13.342;2023-09-18T07:12:45;92413.59;;;22.89;45.60
39613;BME280;25303;48.896;13.342;2023-09-18T07:15:28;92414.47;;;22.95;45.74
39613;BME280;25303;48.896;13.342;2023-09-18T07:18:11;92419.00;;;23.00;46.10
39613;BME280;25303;48.896;13.342;2023-09-18T07:20:56;92416.69;;;23.03;46.37
39613;BME280;25303;48.896;13.342;2023-09-18T07:23:41;92420.41;;;23.08;46.06
39613;BME280;25303;48.896;13.342;2023-09-18T07:26:23;92414.97;;;23.14;46.45
39613;BME280;25303;48.896;13.342;2023-09-18T07:29:06;92417.75;;;23.25;46.22
39613;BME280;25303;48.896;13.342;2023-09-18T07:31:49;92409.44;;;23.33;46.24
39613;BME280;25303;48.896;13.342;2023-09-18T07:34:33;92406.09;;;23.43;46.00
39613;BME280;25303;48.896;13.342;2023-09-18T07:37:16;92408.56;;;23.49;46.19
39613;BME280;25303;48.896;13.342;2023-09-18T07:40:05;92414.66;;;23.55;46.20
39613;BME280;25303;48.896;13.342;2023-09-18T07:42:48;92419.94;;;23.60;46.21
39613;BME280;25303;48.896;13.342;2023-09-18T07:45:31;92424.50;;;23.65;45.53
39613;BME280;25303;48.896;13.342;2023-09-18T07:48:14;92425.56;;;23.69;45.35
39613;BME280;25303;48.896;13.342;2023-09-18T07:50:58;92428.19;;;23.69;44.49
39613;BME280;25303;48.896;13.342;2023-09-18T07:53:42;92431.97;;;23.78;44.33
39613;BME280;25303;48.896;13.342;2023-09-18T07:56:27;92427.34;;;23.91;44.58
39613;BME280;25303;48.896;13.342;2023-09-18T07:59:13;92430.59;;;23.98;44.10
39613;BME280;25303;48.896;13.342;2023-09-18T08:01:56;92420.66;;;24.05;43.82
39613;BME280;25303;48.896;13.342;2023-09-18T08:04:39;92428.13;;;24.19;43.81
39613;BME280;25303;48.896;13.342;2023-09-18T08:07:22;92430.09;;;24.34;43.80
39613;BME280;25303;48.896;13.342;2023-09-18T08:10:06;92425.72;;;24.45;43.59
39613;BME280;25303;48.896;13.342;2023-09-18T08:12:51;92431.53;;;24.52;43.07
39613;BME280;25303;48.896;13.342;2023-09-18T08:15:35;92417.88;;;24.55;43.46
39613;BME280;25303;48.896;13.342;2023-09-18T08:18:19;92419.72;;;24.54;44.03
39613;BME280;25303;48.896;13.342;2023-09-18T08:21:02;92422.03;;;24.51;44.27
39613;BME280;25303;48.896;13.342;2023-09-18T08:23:46;92424.44;;;24.52;44.47
39613;BME280;25303;48.896;13.342;2023-09-18T08:26:29;92428.63;;;24.48;44.80
39613;BME280;25303;48.896;13.342;2023-09-18T08:29:14;92437.81;;;24.46;44.98
39613;BME280;25303;48.896;13.342;2023-09-18T08:31:57;92439.09;;;24.43;44.61
39613;BME280;25303;48.896;13.342;2023-09-18T08:34:39;92432.56;;;24.46;44.91
39613;BME280;25303;48.896;13.342;2023-09-18T08:37:22;92439.09;;;24.43;45.40
39613;BME280;25303;48.896;13.342;2023-09-18T08:40:07;92429.59;;;24.37;45.08
39613;BME280;25303;48.896;13.342;2023-09-18T08:42:52;92431.97;;;24.38;44.43
39613;BME280;25303;48.896;13.342;2023-09-18T08:45:45;92430.97;;;24.45;44.51
39613;BME280;25303;48.896;13.342;2023-09-18T08:48:29;92436.00;;;24.51;44.30
39613;BME280;25303;48.896;13.342;2023-09-18T08:51:18;92432.06;;;24.54;44.17
39613;BME280;25303;48.896;13.342;2023-09-18T08:54:02;92443.19;;;24.61;44.12
39613;BME280;25303;48.896;13.342;2023-09-18T08:56:45;92449.53;;;24.65;44.14
39613;BME280;25303;48.896;13.342;2023-09-18T08:59:29;92450.13;;;24.72;44.30
39613;BME280;25303;48.896;13.342;2023-09-18T09:02:15;92445.75;;;24.88;43.60
39613;BME280;25303;48.896;13.342;2023-09-18T09:04:58;92446.38;;;25.06;42.88
39613;BME280;25303;48.896;13.342;2023-09-18T09:07:41;92453.31;;;25.28;42.92
39613;BME280;25303;48.896;13.342;2023-09-18T09:10:23;92444.19;;;25.46;41.88
39613;BME280;25303;48.896;13.342;2023-09-18T09:13:07;92438.41;;;25.54;41.36
39613;BME280;25303;48.896;13.342;2023-09-18T09:15:50;92430.28;;;25.66;41.37
39613;BME280;25303;48.896;13.342;2023-09-18T09:18:47;92421.88;;;25.85;41.40
39613;BME280;25303;48.896;13.342;2023-09-18T09:21:38;92418.22;;;26.12;41.12
39613;BME280;25303;48.896;13.342;2023-09-18T09:24:36;92411.91;;;26.38;41.18
39613;BME280;25303;48.896;13.342;2023-09-18T09:27:19;92409.50;;;26.63;40.96
39613;BME280;25303;48.896;13.342;2023-09-18T09:30:03;92411.59;;;26.87;40.98
39613;BME280;25303;48.896;13.342;2023-09-18T09:32:48;92409.13;;;27.11;40.69
39613;BME280;25303;48.896;13.342;2023-09-18T09:35:34;92405.06;;;27.34;40.54
39613;BME280;25303;48.896;13.342;2023-09-18T09:38:17;92407.63;;;27.60;39.93
39613;BME280;25303;48.896;13.342;2023-09-18T09:41:02;92411.94;;;27.90;39.50
39613;BME280;25303;48.896;13.342;2023-09-18T09:43:50;92402.78;;;28.17;39.04
39613;BME280;25303;48.896;13.342;2023-09-18T09:46:46;92402.88;;;28.42;38.26
39613;BME280;25303;48.896;13.342;2023-09-18T09:49:48;92393.28;;;28.75;38.52
39613;BME280;25303;48.896;13.342;2023-09-18T09:52:34;92402.41;;;28.93;37.72
39613;BME280;25303;48.896;13.342;2023-09-18T09:55:25;92406.28;;;29.01;37.00
39613;BME280;25303;48.896;13.342;2023-09-18T09:58:27;92406.28;;;29.01;36.44
39613;BME280;25303;48.896;13.342;2023-09-18T10:01:13;92400.66;;;29.08;36.82
39613;BME280;25303;48.896;13.342;2023-09-18T10:04:01;92400.97;;;29.25;36.48
39613;BME280;25303;48.896;13.342;2023-09-18T10:06:51;92395.44;;;29.46;36.03
39613;BME280;25303;48.896;13.342;2023-09-18T10:09:39;92391.22;;;29.64;36.04
39613;BME280;25303;48.896;13.342;2023-09-18T10:12:24;92396.38;;;29.75;35.21
39613;BME280;25303;48.896;13.342;2023-09-18T10:15:08;92394.09;;;29.87;34.72
39613;BME280;25303;48.896;13.342;2023-09-18T10:17:55;92395.41;;;30.09;34.38
39613;BME280;25303;48.896;13.342;2023-09-18T10:20:41;92390.78;;;30.14;33.13
39613;BME280;25303;48.896;13.342;2023-09-18T10:23:39;92388.75;;;30.11;32.75
39613;BME280;25303;48.896;13.342;2023-09-18T10:26:27;92391.16;;;30.27;33.59
39613;BME280;25303;48.896;13.342;2023-09-18T10:29:12;92398.38;;;30.40;33.11
39613;BME280;25303;48.896;13.342;2023-09-18T10:31:58;92395.13;;;30.43;33.44
39613;BME280;25303;48.896;13.342;2023-09-18T10:34:41;92395.41;;;30.42;32.83
39613;BME280;25303;48.896;13.342;2023-09-18T10:37:27;92397.34;;;30.36;32.96
39613;BME280;25303;48.896;13.342;2023-09-18T10:40:11;92401.00;;;30.40;32.88
39613;BME280;25303;48.896;13.342;2023-09-18T10:42:57;92401.13;;;30.49;32.71
39613;BME280;25303;48.896;13.342;2023-09-18T10:45:40;92406.50;;;30.63;32.92
39613;BME280;25303;48.896;13.342;2023-09-18T10:48:23;92397.78;;;30.76;32.81
39613;BME280;25303;48.896;13.342;2023-09-18T10:51:08;92399.16;;;30.88;32.54
39613;BME280;25303;48.896;13.342;2023-09-18T10:53:51;92404.28;;;30.98;32.33
39613;BME280;25303;48.896;13.342;2023-09-18T10:56:35;92401.03;;;31.01;32.56
39613;BME280;25303;48.896;13.342;2023-09-18T10:59:20;92398.50;;;31.24;32.77
39613;BME280;25303;48.896;13.342;2023-09-18T11:02:05;92398.56;;;31.47;31.76
39613;BME280;25303;48.896;13.342;2023-09-18T11:04:48;92399.81;;;31.63;31.99
39613;BME280;25303;48.896;13.342;2023-09-18T11:07:31;92407.63;;;31.74;30.85
39613;BME280;25303;48.896;13.342;2023-09-18T11:10:26;92394.81;;;31.62;29.35
39613;BME280;25303;48.896;13.342;2023-09-18T11:13:10;92408.47;;;31.69;30.20
39613;BME280;25303;48.896;13.342;2023-09-18T11:16:00;92394.72;;;31.67;29.87
39613;BME280;25303;48.896;13.342;2023-09-18T11:18:47;92391.16;;;31.58;30.42
39613;BME280;25303;48.896;13.342;2023-09-18T11:21:32;92394.94;;;31.71;30.68
39613;BME280;25303;48.896;13.342;2023-09-18T11:24:16;92387.16;;;31.60;30.02
39613;BME280;25303;48.896;13.342;2023-09-18T11:27:00;92391.34;;;31.61;31.32
39613;BME280;25303;48.896;13.342;2023-09-18T11:29:43;92385.00;;;31.48;30.87
39613;BME280;25303;48.896;13.342;2023-09-18T11:32:38;92380.34;;;31.40;30.71
39613;BME280;25303;48.896;13.342;2023-09-18T11:35:23;92378.41;;;31.32;31.57
39613;BME280;25303;48.896;13.342;2023-09-18T11:38:08;92380.38;;;31.12;32.05
39613;BME280;25303;48.896;13.342;2023-09-18T11:40:51;92380.19;;;31.09;32.11
39613;BME280;25303;48.896;13.342;2023-09-18T11:43:34;92386.47;;;30.85;31.75
39613;BME280;25303;48.896;13.342;2023-09-18T11:46:20;92393.44;;;30.67;31.96
39613;BME280;25303;48.896;13.342;2023-09-18T11:49:05;92403.78;;;30.49;32.64
39613;BME280;25303;48.896;13.342;2023-09-18T11:51:50;92398.56;;;30.44;33.14
39613;BME280;25303;48.896;13.342;2023-09-18T11:54:33;92405.53;;;30.40;33.07
39613;BME280;25303;48.896;13.342;2023-09-18T11:57:17;92415.94;;;30.36;33.16
39613;BME280;25303;48.896;13.342;2023-09-18T12:00:01;92423.22;;;30.30;33.86
39613;BME280;25303;48.896;13.342;2023-09-18T12:02:54;92422.00;;;30.04;33.96
39613;BME280;25303;48.896;13.342;2023-09-18T12:05:38;92418.84;;;29.63;34.50
39613;BME280;25303;48.896;13.342;2023-09-18T12:08:21;92414.44;;;29.29;34.19
39613;BME280;25303;48.896;13.342;2023-09-18T12:11:06;92420.44;;;29.16;33.59
39613;BME280;25303;48.896;13.342;2023-09-18T12:13:50;92417.06;;;29.10;33.90
39613;BME280;25303;48.896;13.342;2023-09-18T12:16:37;92412.66;;;29.00;33.91
39613;BME280;25303;48.896;13.342;2023-09-18T12:19:21;92406.78;;;28.79;33.96
39613;BME280;25303;48.896;13.342;2023-09-18T12:22:06;92402.63;;;28.68;33.94
39613;BME280;25303;48.896;13.342;2023-09-18T12:24:49;92409.09;;;28.56;34.71
39613;BME280;25303;48.896;13.342;2023-09-18T12:27:32;92405.00;;;28.40;34.88
39613;BME280;25303;48.896;13.342;2023-09-18T12:30:18;92416.16;;;28.31;35.28
39613;BME280;25303;48.896;13.342;2023-09-18T12:33:03;92420.00;;;28.15;35.85
39613;BME280;25303;48.896;13.342;2023-09-18T12:35:46;92417.94;;;28.07;36.38
39613;BME280;25303;48.896;13.342;2023-09-18T12:38:31;92407.59;;;28.05;36.97
39613;BME280;25303;48.896;13.342;2023-09-18T12:41:15;92405.78;;;28.00;36.55
39613;BME280;25303;48.896;13.342;2023-09-18T12:43:58;92402.41;;;27.89;36.46
39613;BME280;25303;48.896;13.342;2023-09-18T12:46:42;92409.88;;;27.87;36.93
39613;BME280;25303;48.896;13.342;2023-09-18T12:49:30;92405.88;;;27.90;37.40
39613;BME280;25303;48.896;13.342;2023-09-18T12:52:21;92407.72;;;27.89;37.63
39613;BME280;25303;48.896;13.342;2023-09-18T12:55:07;92403.00;;;27.86;37.91
39613;BME280;25303;48.896;13.342;2023-09-18T12:57:50;92412.84;;;27.75;37.94
39613;BME280;25303;48.896;13.342;2023-09-18T13:00:34;92413.22;;;27.53;38.25
39613;BME280;25303;48.896;13.342;2023-09-18T13:03:17;92425.69;;;27.37;38.75
39613;BME280;25303;48.896;13.342;2023-09-18T13:06:08;92423.94;;;27.07;39.65
39613;BME280;25303;48.896;13.342;2023-09-18T13:08:51;92431.38;;;26.94;39.63
39613;BME280;25303;48.896;13.342;2023-09-18T13:11:55;92431.91;;;26.76;40.66
39613;BME280;25303;48.896;13.342;2023-09-18T13:14:57;92424.00;;;26.76;40.94
39613;BME280;25303;48.896;13.342;2023-09-18T13:17:41;92430.59;;;26.68;40.50
39613;BME280;25303;48.896;13.342;2023-09-18T13:20:27;92432.47;;;26.67;40.77
39613;BME280;25303;48.896;13.342;2023-09-18T13:23:11;92436.94;;;26.72;40.78
39613;BME280;25303;48.896;13.342;2023-09-18T13:25:59;92439.31;;;26.74;40.92
39613;BME280;25303;48.896;13.342;2023-09-18T13:28:43;92436.41;;;26.91;40.54
39613;BME280;25303;48.896;13.342;2023-09-18T13:31:26;92441.66;;;27.06;40.74
39613;BME280;25303;48.896;13.342;2023-09-18T13:34:10;92439.78;;;27.12;40.20
39613;BME280;25303;48.896;13.342;2023-09-18T13:36:54;92441.41;;;27.03;40.14
39613;BME280;25303;48.896;13.342;2023-09-18T13:39:37;92441.94;;;26.94;40.27
39613;BME280;25303;48.896;13.342;2023-09-18T13:42:20;92443.28;;;26.92;40.51
39613;BME280;25303;48.896;13.342;2023-09-18T13:45:06;92449.38;;;26.87;40.50
39613;BME280;25303;48.896;13.342;2023-09-18T13:47:49;92450.41;;;26.71;40.22
39613;BME280;25303;48.896;13.342;2023-09-18T13:50:33;92458.88;;;26.52;40.55
39613;BME280;25303;48.896;13.342;2023-09-18T13:53:16;92459.66;;;26.58;40.73
39613;BME280;25303;48.896;13.342;2023-09-18T13:55:59;92446.47;;;26.52;40.76
39613;BME280;25303;48.896;13.342;2023-09-18T13:58:42;92456.75;;;26.44;40.96
39613;BME280;25303;48.896;13.342;2023-09-18T14:01:26;92450.16;;;26.36;41.32
39613;BME280;25303;48.896;13.342;2023-09-18T14:04:10;92453.06;;;26.34;41.21
39613;BME280;25303;48.896;13.342;2023-09-18T14:06:53;92456.25;;;26.36;41.23
39613;BME280;25303;48.896;13.342;2023-09-18T14:09:36;92447.81;;;26.34;41.57
39613;BME280;25303;48.896;13.342;2023-09-18T14:12:19;92447.00;;;26.23;42.15
39613;BME280;25303;48.896;13.342;2023-09-18T14:15:03;92447.19;;;26.06;42.20
39613;BME280;25303;48.896;13.342;2023-09-18T14:17:48;92449.56;;;25.92;42.66
39613;BME280;25303;48.896;13.342;2023-09-18T14:20:31;92449.03;;;25.80;43.05